Time;durP1;ratioP1;P1;durP2;ratioP2;P2;SDS_P1;SDS_P2;PMS_P1;PMS_P2;Temp;Humidity;BMP_temperature;BMP_pressure;BME280_temperature;BME280_humidity;BME280_pressure;Samples;Min_cycle;Max_cycle;Signal;HPM_P1;HPM_P2
2023/05/16 00:01:45;;;;;;;0.87;0.87;;;13.40;1.00;;;;;;5203522;28;20052;-68
2023/05/16 00:04:16;;;;;;;0.80;0.80;;;13.40;1.00;;;;;;5186315;28;20052;-67
2023/05/16 00:06:47;;;;;;;1.00;0.93;;;13.40;1.00;;;;;;5205293;28;20360;-67
2023/05/16 00:09:19;;;;;;;1.40;1.30;;;13.30;1.00;;;;;;5204173;28;20247;-67
2023/05/16 00:11:50;;;;;;;0.90;0.90;;;13.30;1.00;;;;;;5205216;28;20029;-70
2023/05/16 00:14:25;;;;;;;1.30;1.20;;;13.10;1.00;;;;;;5187269;28;20234;-67
2023/05/16 00:16:59;;;;;;;1.60;1.50;;;13.00;1.00;;;;;;5220089;28;20044;-68
2023/05/16 00:19:34;;;;;;;1.00;0.90;;;12.90;44.00;;;;;;5200684;28;20025;-69
2023/05/16 00:22:08;;;;;;;1.25;1.15;;;12.80;99.90;;;;;;5220348;28;20045;-68
2023/05/16 00:24:39;;;;;;;1.45;1.35;;;12.70;89.00;;;;;;5186014;28;20049;-67
2023/05/16 00:27:12;;;;;;;0.90;0.90;;;12.60;99.90;;;;;;5205122;28;20037;-67
2023/05/16 00:29:47;;;;;;;1.58;1.48;;;12.60;99.90;;;;;;5221367;28;20039;-65
2023/05/16 00:32:18;;;;;;;1.27;1.17;;;12.40;99.90;;;;;;5185765;28;20363;-65
2023/05/16 00:34:49;;;;;;;1.10;1.08;;;12.30;1.00;;;;;;5187745;28;20047;-66
2023/05/16 00:37:23;;;;;;;1.20;1.10;;;12.30;1.00;;;;;;5204702;28;20164;-68
2023/05/16 00:39:58;;;;;;;1.25;1.15;;;12.40;1.00;;;;;;5205671;28;20046;-68
2023/05/16 00:42:31;;;;;;;1.80;1.30;;;12.40;1.00;;;;;;5206083;28;20056;-70
2023/05/16 00:45:09;;;;;;;1.50;1.40;;;12.40;1.00;;;;;;5204296;28;20051;-69
2023/05/16 00:47:43;;;;;;;1.52;1.42;;;12.40;1.00;;;;;;5206109;28;20028;-67
2023/05/16 00:50:17;;;;;;;1.67;0.82;;;12.40;1.00;;;;;;5189285;28;20025;-67
2023/05/16 00:52:51;;;;;;;;;;;12.30;1.00;;;;;;5204733;28;20067;-68
2023/05/16 00:55:22;;;;;;;2.85;1.17;;;12.30;1.00;;;;;;5218698;28;19919;-68
2023/05/16 00:57:59;;;;;;;1.33;1.23;;;12.30;1.00;;;;;;5205232;28;20260;-69
2023/05/16 01:00:32;;;;;;;1.60;1.50;;;12.40;1.00;;;;;;5255144;23;20017;-66
2023/05/16 01:03:09;;;;;;;1.92;1.17;;;12.40;1.00;;;;;;5288330;22;20071;-68
2023/05/16 01:05:40;;;;;;;1.10;1.10;;;12.40;1.00;;;;;;5208302;28;20066;-66
2023/05/16 01:08:18;;;;;;;2.00;1.42;;;12.40;1.00;;;;;;5244867;28;20050;-68
2023/05/16 01:10:55;;;;;;;1.33;1.23;;;12.40;1.00;;;;;;5257498;28;20021;-67
2023/05/16 01:13:45;;;;;;;1.20;1.10;;;12.30;1.00;;;;;;5256416;28;20042;-67
2023/05/16 01:16:27;;;;;;;1.50;1.40;;;12.30;1.00;;;;;;5240832;28;20051;-69
2023/05/16 01:19:20;;;;;;;1.63;1.00;;;12.40;1.00;;;;;;5260444;28;20459;-65
2023/05/16 01:22:16;;;;;;;1.40;1.30;;;12.40;1.00;;;;;;5229602;28;20261;-69
2023/05/16 01:24:59;;;;;;;1.40;1.30;;;12.40;1.00;;;;;;5246907;28;20040;-68
2023/05/16 01:27:33;;;;;;;1.42;1.25;;;12.40;99.90;;;;;;5244393;28;20036;-66
2023/05/16 01:30:15;;;;;;;1.00;1.00;;;12.40;1.00;;;;;;5245326;28;20036;-67
2023/05/16 01:32:46;;;;;;;1.30;1.20;;;12.30;1.00;;;;;;5243802;28;20051;-67
2023/05/16 01:35:22;;;;;;;1.58;1.40;;;12.40;1.00;;;;;;5224921;28;20055;-67
2023/05/16 01:38:18;;;;;;;1.50;1.40;;;12.50;99.90;;;;;;5230915;28;20057;-66
2023/05/16 01:41:07;;;;;;;1.35;1.25;;;12.60;99.90;;;;;;5239383;28;20031;-65
2023/05/16 01:43:45;;;;;;;1.70;1.60;;;12.70;99.90;;;;;;5258598;28;20078;-68
2023/05/16 01:46:26;;;;;;;1.77;1.33;;;12.80;99.90;;;;;;5239912;28;20024;-67
2023/05/16 01:49:24;;;;;;;1.52;1.42;;;12.90;99.90;;;;;;5249640;28;20024;-66
2023/05/16 01:52:10;;;;;;;1.60;1.50;;;13.00;99.90;;;;;;5237040;28;20040;-70
2023/05/16 01:54:46;;;;;;;1.75;1.38;;;13.00;99.90;;;;;;5250565;28;20023;-68
2023/05/16 01:57:25;;;;;;;1.75;1.65;;;13.20;61.90;;;;;;5243749;28;20145;-69
2023/05/16 01:59:58;;;;;;;1.40;1.30;;;13.20;1.00;;;;;;5243943;28;20038;-67
2023/05/16 02:02:30;;;;;;;1.70;1.60;;;13.30;1.00;;;;;;5224406;28;20044;-67
2023/05/16 02:05:03;;;;;;;1.50;1.40;;;13.30;1.00;;;;;;5221493;28;20063;-66
2023/05/16 02:07:35;;;;;;;1.77;1.43;;;13.40;1.00;;;;;;5207294;28;20036;-68
2023/05/16 02:10:07;;;;;;;1.80;1.70;;;13.40;1.00;;;;;;5202457;28;20534;-68
2023/05/16 02:12:38;;;;;;;2.17;1.95;;;13.40;1.00;;;;;;5219262;28;20041;-66
2023/05/16 02:15:13;;;;;;;1.40;1.30;;;13.50;1.00;;;;;;5209634;28;20627;-69
2023/05/16 02:17:47;;;;;;;2.00;1.60;;;13.50;1.00;;;;;;5207487;28;20384;-68
2023/05/16 02:20:21;;;;;;;1.58;1.48;;;13.50;1.00;;;;;;5202542;28;20028;-67
2023/05/16 02:22:55;;;;;;;1.27;1.10;;;13.60;1.00;;;;;;5197285;28;20313;-66
2023/05/16 02:25:29;;;;;;;1.60;1.50;;;13.60;1.00;;;;;;5203172;28;20052;-68
2023/05/16 02:28:00;;;;;;;1.60;1.50;;;13.60;1.00;;;;;;5216849;28;20352;-69
2023/05/16 02:30:34;;;;;;;1.20;1.10;;;13.60;1.00;;;;;;5234611;28;20035;-69
2023/05/16 02:33:09;;;;;;;3.08;1.58;;;13.60;1.00;;;;;;5204109;28;20036;-66
2023/05/16 02:35:40;;;;;;;1.02;1.02;;;13.70;1.00;;;;;;5224184;28;20036;-67
2023/05/16 02:38:16;;;;;;;1.15;1.05;;;13.70;1.00;;;;;;5241205;28;20037;-69
2023/05/16 02:40:47;;;;;;;1.60;1.45;;;13.70;1.00;;;;;;5219076;28;20044;-69
2023/05/16 02:43:19;;;;;;;1.33;1.23;;;13.70;1.00;;;;;;5220393;28;20045;-68
2023/05/16 02:45:52;;;;;;;1.40;1.30;;;13.70;1.00;;;;;;5240450;28;20035;-67
2023/05/16 02:48:26;;;;;;;2.53;1.60;;;13.70;1.00;;;;;;5223161;28;20237;-67
2023/05/16 02:51:00;;;;;;;1.50;1.40;;;13.60;1.00;;;;;;5233944;28;20032;-64
2023/05/16 02:53:31;;;;;;;1.40;1.20;;;13.60;1.00;;;;;;5246462;28;20024;-68
2023/05/16 02:56:06;;;;;;;1.10;1.10;;;13.60;1.00;;;;;;5234995;28;20034;-69
2023/05/16 02:58:42;;;;;;;1.13;1.02;;;13.60;1.00;;;;;;5234846;28;20500;-63
2023/05/16 03:01:18;;;;;;;1.45;1.33;;;13.60;1.00;;;;;;5228931;28;20250;-66
2023/05/16 03:03:54;;;;;;;1.15;1.10;;;13.50;1.00;;;;;;5226597;28;20045;-68
2023/05/16 03:06:26;;;;;;;1.60;1.50;;;13.50;1.00;;;;;;5235054;28;20044;-65
2023/05/16 03:09:00;;;;;;;1.25;1.15;;;13.50;1.00;;;;;;5228187;28;20035;-63
2023/05/16 03:11:31;;;;;;;1.50;1.40;;;13.50;1.00;;;;;;5224073;28;20039;-65
2023/05/16 03:14:05;;;;;;;2.17;1.63;;;13.50;1.00;;;;;;5225958;28;20040;-67
2023/05/16 03:16:37;;;;;;;1.50;1.15;;;13.50;1.00;;;;;;5225233;28;20036;-68
2023/05/16 03:19:09;;;;;;;1.23;1.20;;;13.40;1.00;;;;;;5227302;28;20043;-65
2023/05/16 03:21:41;;;;;;;1.67;1.42;;;13.40;1.00;;;;;;5211770;28;20032;-66
2023/05/16 03:24:12;;;;;;;1.45;1.35;;;13.40;1.00;;;;;;5207077;28;20043;-67
2023/05/16 03:26:44;;;;;;;1.50;1.40;;;13.30;1.00;;;;;;5233691;28;20036;-68
2023/05/16 03:29:18;;;;;;;0.95;0.95;;;13.40;1.00;;;;;;5248598;28;20036;-65
2023/05/16 03:31:49;;;;;;;1.23;1.13;;;13.40;1.00;;;;;;5226637;28;20042;-66
2023/05/16 03:34:21;;;;;;;1.50;1.40;;;13.40;1.00;;;;;;5248074;28;20032;-68
2023/05/16 03:36:55;;;;;;;0.98;0.98;;;13.40;1.00;;;;;;5247090;28;20047;-67
2023/05/16 03:39:29;;;;;;;1.60;1.50;;;13.40;1.00;;;;;;5248266;28;20046;-67
2023/05/16 03:42:03;;;;;;;1.83;1.73;;;13.50;1.00;;;;;;5215281;28;20372;-67
2023/05/16 03:44:37;;;;;;;1.20;1.15;;;13.50;1.00;;;;;;5228525;28;20040;-67
2023/05/16 03:47:08;;;;;;;;;;;13.50;1.00;;;;;;5226507;28;20035;-67
2023/05/16 03:49:40;;;;;;;1.23;1.20;;;13.60;1.00;;;;;;5245696;28;20173;-66
2023/05/16 03:52:14;;;;;;;1.55;1.30;;;13.60;1.00;;;;;;5206803;28;20344;-66
2023/05/16 03:54:46;;;;;;;;;;;13.60;1.00;;;;;;5207593;28;20052;-66
2023/05/16 03:57:22;;;;;;;1.27;1.15;;;13.70;1.00;;;;;;5226397;28;19908;-65
2023/05/16 03:59:55;;;;;;;1.58;1.38;;;13.70;1.00;;;;;;5226490;28;20037;-67
2023/05/16 04:02:29;;;;;;;1.60;1.50;;;13.80;1.00;;;;;;5234587;28;20409;-65
2023/05/16 04:05:02;;;;;;;2.08;1.90;;;13.80;1.00;;;;;;5236193;28;20036;-66
2023/05/16 04:07:36;;;;;;;3.22;2.67;;;13.80;1.00;;;;;;5231052;28;20620;-68
2023/05/16 04:10:08;;;;;;;1.58;1.48;;;13.80;1.00;;;;;;5211116;28;20041;-67
2023/05/16 04:12:43;;;;;;;2.47;1.90;;;13.90;1.00;;;;;;5227048;28;20041;-66
2023/05/16 04:15:17;;;;;;;6.50;1.95;;;13.90;1.00;;;;;;5224270;28;20228;-67
2023/05/16 04:17:48;;;;;;;3.00;1.98;;;13.90;1.00;;;;;;5209929;28;20248;-68
2023/05/16 04:20:22;;;;;;;3.10;1.60;;;13.90;1.00;;;;;;5222834;28;20040;-67
2023/05/16 04:23:00;;;;;;;;;;;13.90;1.00;;;;;;5227076;28;20037;-66
2023/05/16 04:25:31;;;;;;;1.60;1.40;;;14.00;1.00;;;;;;5226373;28;19919;-66
2023/05/16 04:28:08;;;;;;;1.88;1.75;;;14.00;1.00;;;;;;5240888;28;20345;-67
2023/05/16 04:30:39;;;;;;;1.50;1.40;;;14.00;1.00;;;;;;5223883;28;20033;-67
2023/05/16 04:33:11;;;;;;;2.15;1.55;;;14.00;1.00;;;;;;5221989;28;20059;-66
2023/05/16 04:35:42;;;;;;;1.52;1.42;;;14.00;1.00;;;;;;5224251;28;20027;-67
2023/05/16 04:38:14;;;;;;;2.47;1.80;;;14.00;1.00;;;;;;5225139;28;20036;-67
2023/05/16 04:40:45;;;;;;;2.10;1.90;;;14.10;1.00;;;;;;5225727;28;20222;-67
2023/05/16 04:43:18;;;;;;;1.23;1.13;;;14.10;1.00;;;;;;5225757;28;20446;-68
2023/05/16 04:45:50;;;;;;;2.13;1.85;;;14.10;1.00;;;;;;5224081;28;20042;-67
2023/05/16 04:48:21;;;;;;;1.65;1.55;;;14.30;1.00;;;;;;5224192;28;20232;-68
2023/05/16 04:50:56;;;;;;;1.70;1.35;;;14.30;1.00;;;;;;5202415;28;20041;-67
2023/05/16 04:53:28;;;;;;;1.60;1.50;;;14.30;1.00;;;;;;5223798;28;20040;-67
2023/05/16 04:55:59;;;;;;;1.40;1.30;;;14.40;1.00;;;;;;5195354;28;20040;-70
2023/05/16 04:58:31;;;;;;;1.45;1.35;;;14.40;1.00;;;;;;5202880;28;20040;-66
2023/05/16 05:01:05;;;;;;;1.73;1.63;;;14.40;1.00;;;;;;5206023;28;20074;-68
2023/05/16 05:03:36;;;;;;;1.65;1.50;;;14.40;1.00;;;;;;5178205;28;20423;-68
2023/05/16 05:06:10;;;;;;;1.65;1.55;;;14.40;1.00;;;;;;5190841;28;20061;-68
2023/05/16 05:08:44;;;;;;;1.42;1.33;;;14.40;1.00;;;;;;5209193;28;20032;-66
2023/05/16 05:11:16;;;;;;;1.88;1.60;;;14.40;1.00;;;;;;5228810;28;20024;-69
2023/05/16 05:13:47;;;;;;;1.52;1.42;;;14.40;1.00;;;;;;5194459;28;20404;-68
2023/05/16 05:16:18;;;;;;;1.52;1.42;;;14.40;1.00;;;;;;5214550;28;20075;-69
2023/05/16 05:18:50;;;;;;;2.13;1.95;;;14.40;1.00;;;;;;5199173;28;20086;-69
2023/05/16 05:21:24;;;;;;;1.83;1.73;;;14.50;1.00;;;;;;5179772;28;20041;-68
2023/05/16 05:23:55;;;;;;;1.73;1.63;;;14.60;1.00;;;;;;5178769;28;20052;-69
2023/05/16 05:26:27;;;;;;;1.33;1.10;;;14.70;1.00;;;;;;5162183;28;20044;-68
2023/05/16 05:29:02;;;;;;;1.92;1.80;;;14.80;1.00;;;;;;5206058;28;20042;-67
2023/05/16 05:31:35;;;;;;;2.03;1.83;;;14.90;1.00;;;;;;5183433;28;20394;-68
2023/05/16 05:34:07;;;;;;;1.90;1.80;;;14.90;1.00;;;;;;5196833;28;20044;-69
2023/05/16 05:36:38;;;;;;;1.67;1.58;;;14.90;99.90;;;;;;5213980;28;20051;-67
2023/05/16 05:39:13;;;;;;;1.92;1.70;;;15.00;99.90;;;;;;5221150;28;20270;-69
2023/05/16 05:41:47;;;;;;;1.80;1.70;;;15.00;99.90;;;;;;5212660;28;20153;-68
2023/05/16 05:44:18;;;;;;;;;;;15.10;99.90;;;;;;5224602;28;20040;-69
2023/05/16 05:46:50;;;;;;;1.70;1.60;;;15.10;99.90;;;;;;5204752;28;19999;-69
2023/05/16 05:49:25;;;;;;;1.98;1.70;;;15.00;99.90;;;;;;5204455;28;20044;-69
2023/05/16 05:51:57;;;;;;;1.88;1.70;;;15.10;99.90;;;;;;5193707;28;20041;-68
2023/05/16 05:54:29;;;;;;;1.98;1.70;;;15.40;99.90;;;;;;5220305;28;20040;-70
2023/05/16 05:57:02;;;;;;;1.80;1.65;;;15.50;99.90;;;;;;5187435;28;20043;-69
2023/05/16 05:59:33;;;;;;;4.30;2.20;;;15.50;99.90;;;;;;5223562;28;20029;-68
2023/05/16 06:02:10;;;;;;;2.20;1.95;;;15.60;99.90;;;;;;5198630;28;20055;-70
2023/05/16 06:04:44;;;;;;;1.60;1.50;;;15.60;99.90;;;;;;5210688;28;20067;-69
2023/05/16 06:07:18;;;;;;;1.92;1.80;;;15.80;99.90;;;;;;5205900;28;20065;-68
2023/05/16 06:09:49;;;;;;;2.90;1.90;;;15.70;99.90;;;;;;5207471;28;20364;-70
2023/05/16 06:12:22;;;;;;;1.70;1.60;;;15.60;99.90;;;;;;5162386;28;20076;-67
2023/05/16 06:14:56;;;;;;;1.95;1.85;;;15.30;99.90;;;;;;5204584;28;20071;-69
2023/05/16 06:17:30;;;;;;;2.20;2.00;;;15.30;99.90;;;;;;5116965;28;20056;-69
2023/05/16 06:20:01;;;;;;;2.22;2.03;;;15.20;99.90;;;;;;5230390;28;20058;-68
2023/05/16 06:22:35;;;;;;;1.88;1.40;;;15.10;99.90;;;;;;5183258;28;20037;-68
2023/05/16 06:25:07;;;;;;;2.10;1.48;;;14.90;99.90;;;;;;5234914;28;20046;-68
2023/05/16 06:27:38;;;;;;;1.67;1.58;;;15.00;1.00;;;;;;5245492;28;20054;-69
2023/05/16 06:30:17;;;;;;;1.90;1.80;;;15.10;1.00;;;;;;5241413;28;20042;-70
2023/05/16 06:32:56;;;;;;;2.13;1.95;;;15.00;99.90;;;;;;5238736;28;20194;-69
2023/05/16 06:35:27;;;;;;;2.33;1.60;;;15.00;99.90;;;;;;5227932;28;20036;-69
2023/05/16 06:38:00;;;;;;;2.10;1.90;;;15.00;99.90;;;;;;5234437;28;20040;-70
2023/05/16 06:40:32;;;;;;;1.60;1.50;;;15.00;1.00;;;;;;5226515;28;20036;-69
2023/05/16 06:43:05;;;;;;;1.73;1.63;;;15.30;99.90;;;;;;5225118;28;20347;-66
2023/05/16 06:45:37;;;;;;;2.30;1.67;;;15.20;99.90;;;;;;5209235;28;20504;-66
2023/05/16 06:48:09;;;;;;;2.20;2.00;;;15.20;99.90;;;;;;5252809;28;20058;-66
2023/05/16 06:50:41;;;;;;;1.50;1.40;;;15.20;99.90;;;;;;5240427;28;20037;-65
2023/05/16 06:53:12;;;;;;;1.67;1.58;;;15.20;99.90;;;;;;5217483;28;20447;-67
2023/05/16 06:55:46;;;;;;;1.70;1.60;;;15.00;99.90;;;;;;5247766;28;20040;-67
2023/05/16 06:58:17;;;;;;;1.73;1.63;;;15.00;1.00;;;;;;5225152;28;20040;-68
2023/05/16 07:00:51;;;;;;;1.90;1.80;;;15.00;1.00;;;;;;5236860;28;20365;-67
2023/05/16 07:03:25;;;;;;;1.88;1.77;;;14.90;1.00;;;;;;5221713;28;20040;-65
2023/05/16 07:05:56;;;;;;;1.77;1.30;;;14.80;1.00;;;;;;5227932;28;20070;-66
2023/05/16 07:08:28;;;;;;;1.75;1.50;;;14.90;99.90;;;;;;5219224;28;20276;-66
2023/05/16 07:11:04;;;;;;;1.80;1.70;;;14.90;99.90;;;;;;5223488;28;20038;-66
2023/05/16 07:13:35;;;;;;;1.88;1.77;;;14.90;99.90;;;;;;5253738;28;20029;-67
2023/05/16 07:16:09;;;;;;;2.25;1.83;;;14.80;1.00;;;;;;5250629;28;20028;-64
2023/05/16 07:18:40;;;;;;;1.83;1.73;;;14.90;1.00;;;;;;5211763;28;20032;-67
2023/05/16 07:21:11;;;;;;;2.88;1.77;;;15.00;99.90;;;;;;5255322;28;20050;-69
2023/05/16 07:23:45;;;;;;;2.25;2.05;;;15.00;99.90;;;;;;5236015;28;20036;-69
2023/05/16 07:26:17;;;;;;;2.13;1.90;;;15.00;99.90;;;;;;5235221;28;20055;-68
2023/05/16 07:28:49;;;;;;;2.05;1.85;;;14.80;99.90;;;;;;5228002;28;20025;-66
2023/05/16 07:31:21;;;;;;;2.30;2.10;;;14.90;99.90;;;;;;5241314;28;20016;-67
2023/05/16 07:33:55;;;;;;;2.20;2.00;;;14.80;99.90;;;;;;5240151;28;20042;-69
2023/05/16 07:36:32;;;;;;;;;;;14.70;99.90;;;;;;5251652;28;20336;-68
2023/05/16 07:39:03;;;;;;;2.70;1.95;;;14.70;1.00;;;;;;5240705;28;19900;-68
2023/05/16 07:41:35;;;;;;;1.80;1.70;;;14.70;1.00;;;;;;5246785;28;20036;-66
2023/05/16 07:44:08;;;;;;;4.20;2.00;;;14.70;1.00;;;;;;5250348;28;20036;-67
2023/05/16 07:46:43;;;;;;;2.25;2.05;;;14.70;1.00;;;;;;5223091;28;20048;-68
2023/05/16 07:49:15;;;;;;;1.70;1.60;;;14.80;1.00;;;;;;5224673;28;20620;-67
2023/05/16 07:51:47;;;;;;;1.70;1.60;;;14.70;1.00;;;;;;5238814;28;20118;-68
2023/05/16 07:54:20;;;;;;;1.92;1.73;;;14.60;1.00;;;;;;5253358;28;20628;-68
2023/05/16 07:56:54;;;;;;;2.35;2.15;;;14.40;99.90;;;;;;5221819;28;20041;-67
2023/05/16 07:59:26;;;;;;;3.13;2.80;;;14.30;99.90;;;;;;5243155;28;20025;-68
2023/05/16 08:02:01;;;;;;;1.98;1.77;;;13.90;1.00;;;;;;5210454;28;20024;-65
2023/05/16 08:04:32;;;;;;;;;;;13.60;1.00;;;;;;5226822;28;20517;-65
2023/05/16 08:07:07;;;;;;;1.90;1.80;;;13.40;1.00;;;;;;5248315;28;19908;-66
2023/05/16 08:09:38;;;;;;;2.67;2.10;;;13.20;1.00;;;;;;5209473;28;20052;-65
2023/05/16 08:12:10;;;;;;;2.45;2.25;;;13.20;53.90;;;;;;5217047;28;20064;-65
2023/05/16 08:14:43;;;;;;;2.22;2.03;;;13.10;99.90;;;;;;5247605;28;20036;-69
2023/05/16 08:17:15;;;;;;;4.10;2.13;;;13.00;99.90;;;;;;5255670;28;20036;-67
2023/05/16 08:19:46;;;;;;;2.65;2.00;;;12.90;99.90;;;;;;5250346;28;20282;-65
2023/05/16 08:22:19;;;;;;;2.85;2.08;;;12.90;99.90;;;;;;5230670;28;20041;-66
2023/05/16 08:24:56;;;;;;;3.50;2.40;;;12.80;99.90;;;;;;5229030;28;20034;-66
2023/05/16 08:27:28;;;;;;;3.20;2.63;;;12.80;99.90;;;;;;5253276;28;20024;-66
2023/05/16 08:29:59;;;;;;;3.08;2.75;;;12.80;99.90;;;;;;5217876;28;20046;-64
2023/05/16 08:32:33;;;;;;;5.78;3.17;;;12.90;99.90;;;;;;5237920;28;20040;-65
2023/05/16 08:35:05;;;;;;;6.15;2.67;;;12.90;99.90;;;;;;5194459;28;20029;-68
2023/05/16 08:37:37;;;;;;;4.82;2.83;;;13.00;99.90;;;;;;5219712;28;20036;-68
2023/05/16 08:40:13;;;;;;;3.10;2.80;;;13.00;99.90;;;;;;5234220;28;20024;-68
2023/05/16 08:42:44;;;;;;;3.22;2.55;;;13.00;99.90;;;;;;5220879;28;20036;-67
2023/05/16 08:45:16;;;;;;;3.53;2.97;;;12.90;99.90;;;;;;5230922;28;20028;-67
2023/05/16 08:47:50;;;;;;;7.28;3.20;;;12.90;99.90;;;;;;5238502;28;20026;-68
2023/05/16 08:50:24;;;;;;;3.28;2.97;;;12.80;99.90;;;;;;5230534;28;20034;-68
2023/05/16 08:53:00;;;;;;;3.33;2.60;;;12.70;99.90;;;;;;5253789;28;20032;-69
2023/05/16 08:55:35;;;;;;;4.38;3.65;;;12.70;99.90;;;;;;5256282;28;20028;-67
2023/05/16 08:58:07;;;;;;;;;;;12.60;99.90;;;;;;5212551;28;20039;-67
2023/05/16 09:00:39;;;;;;;6.28;3.20;;;12.60;99.90;;;;;;5244624;28;19914;-69
2023/05/16 09:03:10;;;;;;;4.25;3.47;;;12.60;99.90;;;;;;5250788;28;20031;-68
2023/05/16 09:05:45;;;;;;;3.55;3.05;;;12.60;99.90;;;;;;5232308;28;20070;-68
2023/05/16 09:08:16;;;;;;;;;;;12.60;99.90;;;;;;5233086;28;20044;-68
2023/05/16 09:10:47;;;;;;;6.25;3.78;;;12.50;99.90;;;;;;5253884;28;19911;-67
2023/05/16 09:13:19;;;;;;;4.10;3.33;;;12.50;99.90;;;;;;5226631;28;20491;-68
2023/05/16 09:16:17;;;;;;;4.18;3.38;;;12.40;99.90;;;;;;5229796;28;20032;-67
2023/05/16 09:19:15;;;;;;;3.78;3.22;;;12.30;99.90;;;;;;5213839;28;20031;-66
2023/05/16 09:21:46;;;;;;;3.97;3.38;;;12.20;99.90;;;;;;5229850;28;20044;-67
2023/05/16 09:24:25;;;;;;;4.47;3.22;;;12.20;99.90;;;;;;5227020;28;20029;-68
2023/05/16 09:27:09;;;;;;;4.55;3.28;;;12.30;99.90;;;;;;5257968;28;20034;-68
2023/05/16 09:29:49;;;;;;;10.68;4.20;;;12.30;99.90;;;;;;5255154;28;20036;-69
2023/05/16 09:32:20;;;;;;;4.25;3.55;;;12.30;99.90;;;;;;5253587;28;20036;-67
2023/05/16 09:34:52;;;;;;;4.95;4.07;;;12.20;99.90;;;;;;5230639;28;20035;-68
2023/05/16 09:37:24;;;;;;;4.07;3.42;;;12.20;99.90;;;;;;5251152;28;20062;-69
2023/05/16 09:39:58;;;;;;;5.70;3.38;;;12.20;99.90;;;;;;5248713;28;20042;-68
2023/05/16 09:42:35;;;;;;;7.43;4.88;;;12.20;99.90;;;;;;5229691;28;20398;-69
2023/05/16 09:45:12;;;;;;;4.80;3.75;;;12.20;99.90;;;;;;5255605;28;20544;-69
2023/05/16 09:47:46;;;;;;;5.13;3.38;;;12.20;99.90;;;;;;5227677;28;20042;-68
2023/05/16 09:50:18;;;;;;;5.28;3.53;;;12.20;99.90;;;;;;5240785;28;20228;-68
2023/05/16 09:52:55;;;;;;;4.38;3.53;;;12.20;99.90;;;;;;5240357;28;20024;-70
2023/05/16 09:55:32;;;;;;;4.47;3.63;;;12.20;99.90;;;;;;5225055;28;20036;-67
2023/05/16 09:58:05;;;;;;;4.25;3.65;;;12.20;99.90;;;;;;5238929;28;20037;-69
2023/05/16 10:00:38;;;;;;;4.70;3.87;;;12.20;99.90;;;;;;5233343;28;20032;-67
2023/05/16 10:03:10;;;;;;;4.82;3.08;;;12.20;99.90;;;;;;5199691;28;20044;-66
2023/05/16 10:05:41;;;;;;;4.32;3.63;;;12.20;99.90;;;;;;5221745;28;20064;-69
2023/05/16 10:08:17;;;;;;;5.80;4.35;;;12.20;99.90;;;;;;5213617;28;20048;-69
2023/05/16 10:10:53;;;;;;;5.32;4.38;;;12.20;99.90;;;;;;5204376;28;20392;-70
2023/05/16 10:13:30;;;;;;;4.63;3.75;;;12.20;99.90;;;;;;5227109;28;20036;-70
2023/05/16 10:16:08;;;;;;;3.95;3.50;;;12.30;99.90;;;;;;5248151;28;20378;-68
2023/05/16 10:18:42;;;;;;;4.68;4.15;;;12.40;99.90;;;;;;5216748;28;20074;-68
2023/05/16 10:21:18;;;;;;;4.60;3.80;;;12.30;99.90;;;;;;5250377;28;20043;-70
2023/05/16 10:23:54;;;;;;;5.57;3.45;;;12.30;99.90;;;;;;5241676;28;20052;-68
2023/05/16 10:26:26;;;;;;;5.03;3.60;;;12.50;99.90;;;;;;5242775;28;20033;-71
2023/05/16 10:28:58;;;;;;;4.60;3.80;;;12.40;99.90;;;;;;5210504;28;20059;-69
2023/05/16 10:31:32;;;;;;;4.15;3.55;;;12.50;99.90;;;;;;5250270;28;20346;-71
2023/05/16 10:34:03;;;;;;;5.35;3.95;;;12.50;99.90;;;;;;5246446;28;20036;-69
2023/05/16 10:36:36;;;;;;;5.05;4.43;;;12.50;99.90;;;;;;5231870;28;20046;-71
2023/05/16 10:39:08;;;;;;;6.82;4.20;;;12.50;99.90;;;;;;5223161;28;20028;-70
2023/05/16 10:41:42;;;;;;;5.15;4.18;;;12.60;99.90;;;;;;5238730;28;20035;-70
2023/05/16 10:44:16;;;;;;;9.40;4.53;;;12.60;99.90;;;;;;5257479;28;20035;-70
2023/05/16 10:46:47;;;;;;;7.22;5.40;;;12.70;99.90;;;;;;5240540;28;20492;-69
2023/05/16 10:49:23;;;;;;;5.03;4.50;;;12.80;99.90;;;;;;5238895;28;20040;-69
2023/05/16 10:52:06;;;;;;;6.05;4.53;;;12.80;99.90;;;;;;5255990;28;20032;-67
2023/05/16 10:54:54;;;;;;;5.68;4.55;;;12.80;99.90;;;;;;5259902;28;20028;-69
2023/05/16 10:57:31;;;;;;;5.07;3.58;;;12.90;99.90;;;;;;5240106;28;20344;-68
2023/05/16 11:00:08;;;;;;;8.40;4.90;;;13.00;99.90;;;;;;5238212;28;20028;-69
2023/05/16 11:02:43;;;;;;;10.27;4.82;;;13.10;99.90;;;;;;5223814;28;20036;-68
2023/05/16 11:05:18;;;;;;;5.63;3.88;;;13.10;99.90;;;;;;5218487;28;20053;-69
2023/05/16 11:08:05;;;;;;;5.13;4.20;;;13.00;99.90;;;;;;5243451;28;20046;-68
2023/05/16 11:10:40;;;;;;;6.65;4.10;;;13.00;99.90;;;;;;5242844;28;20090;-69
2023/05/16 11:13:11;;;;;;;6.57;4.30;;;13.10;99.90;;;;;;5263145;28;20044;-67
2023/05/16 11:15:45;;;;;;;5.00;4.35;;;13.10;99.90;;;;;;5223209;28;20033;-69
2023/05/16 11:18:18;;;;;;;7.97;5.45;;;13.20;99.90;;;;;;5257364;28;20629;-67
2023/05/16 11:21:02;;;;;;;6.23;5.63;;;13.10;99.90;;;;;;5241246;28;20042;-68
2023/05/16 11:23:33;;;;;;;10.18;7.15;;;13.20;99.90;;;;;;5236420;28;20275;-68
2023/05/16 11:26:04;;;;;;;9.45;5.80;;;13.20;99.90;;;;;;5243812;28;20047;-70
2023/05/16 11:28:36;;;;;;;14.10;7.03;;;13.30;99.90;;;;;;5228790;28;20421;-69
2023/05/16 11:31:08;;;;;;;7.95;5.72;;;13.20;99.90;;;;;;5238508;28;20034;-68
2023/05/16 11:33:42;;;;;;;8.55;5.05;;;13.20;99.90;;;;;;5253401;28;20032;-68
2023/05/16 11:36:14;;;;;;;5.82;4.68;;;13.20;99.90;;;;;;5214546;28;20044;-67
2023/05/16 11:38:48;;;;;;;8.18;4.93;;;13.10;99.90;;;;;;5247339;28;20023;-68
2023/05/16 11:41:21;;;;;;;5.93;4.90;;;13.00;99.90;;;;;;5221415;28;20036;-69
2023/05/16 11:43:52;;;;;;;5.70;4.35;;;13.00;99.90;;;;;;5240500;28;20020;-69
2023/05/16 11:46:24;;;;;;;6.78;4.55;;;12.90;99.90;;;;;;5219317;28;20033;-70
2023/05/16 11:48:55;;;;;;;4.05;3.63;;;12.80;99.90;;;;;;5245331;28;20038;-68
2023/05/16 11:51:31;;;;;;;5.28;4.75;;;12.80;99.90;;;;;;5254918;28;20031;-69
2023/05/16 11:54:06;;;;;;;5.82;4.55;;;12.90;99.90;;;;;;5215747;28;20036;-69
2023/05/16 11:56:41;;;;;;;6.93;5.18;;;12.80;99.90;;;;;;5236655;28;20024;-69
2023/05/16 11:59:15;;;;;;;5.47;4.82;;;12.80;99.90;;;;;;5244228;28;20024;-71
2023/05/16 12:01:52;;;;;;;4.85;4.22;;;12.70;99.90;;;;;;5253296;28;20040;-69
2023/05/16 12:04:25;;;;;;;5.80;4.18;;;12.80;99.90;;;;;;5238663;28;20032;-69
2023/05/16 12:07:04;;;;;;;8.35;5.40;;;12.80;99.90;;;;;;5246911;28;20317;-69
2023/05/16 12:09:38;;;;;;;5.90;4.50;;;12.80;99.90;;;;;;5245544;28;20040;-69
2023/05/16 12:12:10;;;;;;;5.32;4.55;;;12.80;99.90;;;;;;5251549;28;20028;-69
2023/05/16 12:14:41;;;;;;;5.70;4.30;;;12.70;99.90;;;;;;5245543;28;20032;-69
2023/05/16 12:17:12;;;;;;;6.47;4.82;;;12.70;99.90;;;;;;5230558;28;20036;-72
2023/05/16 12:19:45;;;;;;;5.40;4.55;;;12.80;99.90;;;;;;5251985;28;20032;-69
2023/05/16 12:22:20;;;;;;;5.50;4.50;;;12.90;99.90;;;;;;5235866;28;20035;-69
2023/05/16 12:24:53;;;;;;;7.20;4.88;;;12.90;99.90;;;;;;5265049;28;20038;-69
2023/05/16 12:27:26;;;;;;;5.75;4.30;;;12.90;99.90;;;;;;5224019;28;20055;-69
2023/05/16 12:30:00;;;;;;;6.70;4.95;;;12.80;99.90;;;;;;5240264;28;20036;-66
2023/05/16 12:32:36;;;;;;;5.82;4.47;;;12.90;99.90;;;;;;5247911;28;20028;-68
2023/05/16 12:35:12;;;;;;;6.45;4.85;;;13.10;99.90;;;;;;5226813;28;20632;-67
2023/05/16 12:37:45;;;;;;;5.68;4.40;;;13.00;99.90;;;;;;5231695;28;20024;-72
2023/05/16 12:40:19;;;;;;;4.43;3.95;;;13.00;99.90;;;;;;5225174;28;20044;-69
2023/05/16 12:42:54;;;;;;;5.75;4.65;;;13.00;99.90;;;;;;5230721;28;20036;-70
2023/05/16 12:45:31;;;;;;;4.90;4.43;;;13.10;99.90;;;;;;5230327;28;20031;-69
2023/05/16 12:48:13;;;;;;;5.30;4.03;;;13.00;99.90;;;;;;5226930;28;20325;-67
2023/05/16 12:50:45;;;;;;;6.53;5.32;;;13.10;99.90;;;;;;5213183;28;20538;-69
2023/05/16 12:53:17;;;;;;;4.75;3.83;;;13.10;99.90;;;;;;5238311;28;20035;-68
2023/05/16 12:55:48;;;;;;;5.78;4.30;;;13.00;99.90;;;;;;5244591;28;20237;-68
2023/05/16 12:58:23;;;;;;;7.03;5.18;;;13.10;99.90;;;;;;5236972;28;20257;-69
2023/05/16 13:00:58;;;;;;;5.95;4.35;;;13.10;99.90;;;;;;5221427;28;20500;-69
2023/05/16 13:03:32;;;;;;;5.68;4.55;;;13.00;99.90;;;;;;5217381;28;20045;-70
2023/05/16 13:06:05;;;;;;;7.07;5.20;;;13.00;99.90;;;;;;5229038;28;20487;-68
2023/05/16 13:08:36;;;;;;;6.70;5.45;;;12.90;99.90;;;;;;5232258;28;20040;-70
2023/05/16 13:11:07;;;;;;;7.18;5.05;;;13.00;99.90;;;;;;5222826;28;20032;-69
2023/05/16 13:13:38;;;;;;;6.68;5.32;;;13.00;99.90;;;;;;5216625;28;20032;-69
2023/05/16 13:16:12;;;;;;;5.50;4.97;;;13.00;99.90;;;;;;5232792;28;20035;-68
2023/05/16 13:18:43;;;;;;;6.50;4.63;;;13.00;99.90;;;;;;5238459;28;20023;-69
2023/05/16 13:21:15;;;;;;;8.75;5.50;;;13.00;99.90;;;;;;5223789;28;20038;-68
2023/05/16 13:23:46;;;;;;;7.90;5.13;;;13.00;99.90;;;;;;5238897;28;20039;-67
2023/05/16 13:26:21;;;;;;;6.30;4.53;;;13.00;99.90;;;;;;5235424;28;20036;-68
2023/05/16 13:28:53;;;;;;;6.35;4.57;;;13.00;99.90;;;;;;5198464;28;20040;-68